createdAt,value
2017-07-14T00:02:03.541Z,17.40
2017-07-14T00:04:31.064Z,17.40
2017-07-14T00:06:58.555Z,17.40
2017-07-14T00:09:26.064Z,17.40
2017-07-14T00:11:53.544Z,17.50
2017-07-14T00:14:21.055Z,17.50
2017-07-14T00:16:48.611Z,17.50
2017-07-14T00:19:16.099Z,17.50
2017-07-14T00:21:43.596Z,17.30
2017-07-14T00:24:11.853Z,17.30
2017-07-14T00:26:39.353Z,17.30
2017-07-14T00:29:06.844Z,17.40
2017-07-14T00:31:34.343Z,17.40
2017-07-14T00:34:02.586Z,17.40
2017-07-14T00:36:30.081Z,17.40
2017-07-14T00:38:58.327Z,17.10
2017-07-14T00:41:25.819Z,17.10
2017-07-14T00:43:53.317Z,17.20
2017-07-14T00:46:20.823Z,17.40
2017-07-14T00:48:49.072Z,17.20
2017-07-14T00:51:16.549Z,17.20
2017-07-14T00:53:44.803Z,17.00
2017-07-14T00:56:12.304Z,17.00
2017-07-14T00:58:39.821Z,17.00
2017-07-14T01:01:07.308Z,17.00
2017-07-14T01:03:34.807Z,17.00
2017-07-14T01:06:02.283Z,16.90
2017-07-14T01:08:29.774Z,17.10
2017-07-14T01:10:57.250Z,17.20
2017-07-14T01:13:25.538Z,17.10
2017-07-14T01:15:53.024Z,17.10
2017-07-14T01:18:21.898Z,17.10
2017-07-14T01:20:49.387Z,16.90
2017-07-14T01:23:16.875Z,17.10
2017-07-14T01:25:45.945Z,16.90
2017-07-14T01:28:13.431Z,16.90
2017-07-14T01:30:41.683Z,17.10
2017-07-14T01:33:09.191Z,17.10
2017-07-14T01:35:36.700Z,17.20
2017-07-14T01:38:04.215Z,17.20
2017-07-14T01:40:31.711Z,17.10
2017-07-14T01:42:59.189Z,17.10
2017-07-14T01:45:26.714Z,17.20
2017-07-14T01:47:54.187Z,17.20
2017-07-14T01:50:21.659Z,17.20
2017-07-14T01:52:49.150Z,17.20
2017-07-14T01:55:16.635Z,17.20
2017-07-14T01:57:44.128Z,17.20
2017-07-14T02:00:11.627Z,17.30
2017-07-14T02:02:39.129Z,17.30
2017-07-14T02:05:06.626Z,17.40
2017-07-14T02:07:34.892Z,17.20
2017-07-14T02:10:03.137Z,17.30
2017-07-14T02:12:30.634Z,17.30
2017-07-14T02:14:58.887Z,17.20
2017-07-14T02:17:26.368Z,17.20
2017-07-14T02:19:54.625Z,17.20
2017-07-14T02:22:22.140Z,17.20
2017-07-14T02:24:55.875Z,17.20
2017-07-14T02:27:23.385Z,17.20
2017-07-14T02:29:50.858Z,17.10
2017-07-14T02:32:18.343Z,17.10
2017-07-14T02:34:45.828Z,17.10
2017-07-14T02:37:14.082Z,17.20
2017-07-14T02:39:41.582Z,17.20
2017-07-14T02:42:09.056Z,17.30
2017-07-14T02:44:36.537Z,17.30
2017-07-14T02:47:04.011Z,17.30
2017-07-14T02:49:31.509Z,17.20
2017-07-14T02:51:58.995Z,16.90
2017-07-14T02:54:26.486Z,16.90
2017-07-14T02:56:53.964Z,17.00
2017-07-14T02:59:21.478Z,17.00
2017-07-14T03:01:48.949Z,17.10
2017-07-14T03:04:16.450Z,17.00
2017-07-14T03:06:44.704Z,16.90
2017-07-14T03:09:12.195Z,16.90
2017-07-14T03:11:39.700Z,16.80
2017-07-14T03:14:07.186Z,16.90
2017-07-14T03:16:34.670Z,17.00
2017-07-14T03:19:02.151Z,17.00
2017-07-14T03:21:29.642Z,17.00
2017-07-14T03:23:57.135Z,17.10
2017-07-14T03:26:25.412Z,17.00
2017-07-14T03:28:53.659Z,16.90
2017-07-14T03:31:21.128Z,16.90
2017-07-14T03:33:49.401Z,17.00
2017-07-14T03:36:16.891Z,16.90
2017-07-14T03:38:44.386Z,17.00
2017-07-14T03:41:11.876Z,17.00
2017-07-14T03:43:39.363Z,17.00
2017-07-14T03:46:06.851Z,17.10
2017-07-14T03:48:34.346Z,17.10
2017-07-14T03:51:02.336Z,17.00
2017-07-14T03:53:30.607Z,17.10
2017-07-14T03:55:58.858Z,17.10
2017-07-14T03:58:26.351Z,17.10
2017-07-14T04:00:53.838Z,17.20
2017-07-14T04:03:21.333Z,17.20
2017-07-14T04:05:49.506Z,17.20
2017-07-14T04:08:17.002Z,17.10
2017-07-14T04:10:44.497Z,17.00
2017-07-14T04:13:12.001Z,17.00
2017-07-14T04:15:40.250Z,17.00
2017-07-14T04:18:07.731Z,17.00
2017-07-14T04:20:35.232Z,16.90
2017-07-14T04:23:02.719Z,17.00
2017-07-14T04:25:30.211Z,17.00
2017-07-14T04:27:58.454Z,17.10
2017-07-14T04:30:25.947Z,17.10
2017-07-14T04:32:54.209Z,17.20
2017-07-14T04:35:21.809Z,17.20
2017-07-14T04:37:49.313Z,17.20
2017-07-14T04:40:16.819Z,17.10
2017-07-14T04:42:44.325Z,17.20
2017-07-14T04:45:11.827Z,17.10
2017-07-14T04:47:40.094Z,17.10
2017-07-14T04:50:08.339Z,17.20
2017-07-14T04:52:35.844Z,17.20
2017-07-14T04:55:03.327Z,17.30
2017-07-14T04:57:30.816Z,17.40
2017-07-14T04:59:58.318Z,17.50
2017-07-14T05:02:25.819Z,17.40
2017-07-14T05:04:53.305Z,17.30
2017-07-14T05:07:20.786Z,17.40
2017-07-14T05:09:48.291Z,17.20
2017-07-14T05:12:15.783Z,17.20
2017-07-14T05:14:44.046Z,17.30
2017-07-14T05:17:11.544Z,17.30
2017-07-14T05:19:39.026Z,17.30
2017-07-14T05:22:06.511Z,17.40
2017-07-14T05:24:34.015Z,17.50
2017-07-14T05:27:01.488Z,17.60
2017-07-14T05:29:41.701Z,17.60
2017-07-14T05:32:09.216Z,17.70
2017-07-14T05:34:36.711Z,17.80
2017-07-14T05:37:04.210Z,17.90
2017-07-14T05:39:31.684Z,18.00
2017-07-14T05:41:59.184Z,17.90
2017-07-14T05:44:26.676Z,18.10
2017-07-14T05:46:54.171Z,18.20
2017-07-14T05:49:21.662Z,18.10
2017-07-14T05:51:49.168Z,18.30
2017-07-14T05:54:16.660Z,18.30
2017-07-14T05:56:44.154Z,18.20
2017-07-14T05:59:12.423Z,18.00
2017-07-14T06:01:39.932Z,18.00
2017-07-14T06:04:07.443Z,17.90
2017-07-14T06:06:35.678Z,18.00
2017-07-14T06:09:03.182Z,18.00
2017-07-14T06:11:31.416Z,18.20
2017-07-14T06:13:58.917Z,18.20
2017-07-14T06:16:27.161Z,18.30
2017-07-14T06:18:54.671Z,18.30
2017-07-14T06:21:22.576Z,18.30
2017-07-14T06:23:50.080Z,18.40
2017-07-14T06:26:18.330Z,18.70
2017-07-14T06:28:45.824Z,18.70
2017-07-14T06:31:13.316Z,18.70
2017-07-14T06:33:40.841Z,18.70
2017-07-14T06:36:08.330Z,18.50
2017-07-14T06:38:35.830Z,18.70
2017-07-14T06:41:04.088Z,19.10
2017-07-14T06:43:31.569Z,19.10
2017-07-14T06:45:59.843Z,19.40
2017-07-14T06:48:37.684Z,19.40
2017-07-14T06:51:06.105Z,19.40
2017-07-14T06:53:33.585Z,19.40
2017-07-14T06:56:02.496Z,19.60
2017-07-14T06:58:33.654Z,19.60
2017-07-14T07:01:01.151Z,19.70
2017-07-14T07:03:28.644Z,19.80
2017-07-14T07:05:56.907Z,19.80
2017-07-14T07:08:25.629Z,19.80
2017-07-14T07:10:53.126Z,19.80
2017-07-14T07:13:20.608Z,19.80
2017-07-14T07:15:48.118Z,19.90
2017-07-14T07:18:15.595Z,19.90
2017-07-14T07:20:43.083Z,19.90
2017-07-14T07:23:10.571Z,19.80
2017-07-14T07:25:38.060Z,19.70
2017-07-14T07:28:05.553Z,19.60
2017-07-14T07:30:33.804Z,19.50
2017-07-14T07:33:01.307Z,19.50
2017-07-14T07:35:29.550Z,19.50
2017-07-14T07:38:14.533Z,19.50
2017-07-14T07:40:42.017Z,19.50
2017-07-14T07:43:09.512Z,19.50
2017-07-14T07:45:36.992Z,19.40
2017-07-14T07:48:10.086Z,19.40
2017-07-14T07:50:37.572Z,19.50
2017-07-14T07:53:05.838Z,19.40
2017-07-14T07:55:34.074Z,19.30
2017-07-14T07:58:01.577Z,19.30
2017-07-14T08:00:30.627Z,19.10
2017-07-14T08:03:03.739Z,19.10
2017-07-14T08:05:31.234Z,19.10
2017-07-14T08:07:58.710Z,18.90
2017-07-14T08:10:26.202Z,19.00
2017-07-14T08:12:53.684Z,18.90
2017-07-14T08:15:21.943Z,18.80
2017-07-14T08:17:49.439Z,18.80
2017-07-14T08:20:16.955Z,18.90
2017-07-14T08:22:44.442Z,19.00
2017-07-14T08:25:12.721Z,18.90
2017-07-14T08:27:40.979Z,18.90
2017-07-14T08:30:08.485Z,18.90
2017-07-14T08:32:35.970Z,18.90
2017-07-14T08:35:03.462Z,19.00
2017-07-14T08:37:31.726Z,19.10
2017-07-14T08:40:05.201Z,19.10
2017-07-14T08:42:32.691Z,19.10
2017-07-14T08:45:00.187Z,19.20
2017-07-14T08:47:27.671Z,19.40
2017-07-14T08:49:55.151Z,19.40
2017-07-14T08:52:22.645Z,19.40
2017-07-14T08:54:50.133Z,19.50
2017-07-14T08:57:17.625Z,19.60
2017-07-14T08:59:45.089Z,19.70
2017-07-14T09:02:12.575Z,19.70
2017-07-14T09:04:40.066Z,19.80
2017-07-14T09:07:07.556Z,20.00
2017-07-14T09:09:35.038Z,20.10
2017-07-14T09:12:03.296Z,20.10
2017-07-14T09:14:30.775Z,20.10
2017-07-14T09:16:59.010Z,20.40
2017-07-14T09:19:26.501Z,20.30
2017-07-14T09:21:54.744Z,20.60
2017-07-14T09:24:22.226Z,20.60
2017-07-14T09:26:49.723Z,20.50
2017-07-14T09:29:17.222Z,20.40
2017-07-14T09:31:44.695Z,20.40
2017-07-14T09:34:12.190Z,20.30
2017-07-14T09:36:39.683Z,20.40
2017-07-14T09:39:07.160Z,20.50
2017-07-14T09:41:34.656Z,20.30
2017-07-14T09:44:02.166Z,20.20
2017-07-14T09:46:29.676Z,20.20
2017-07-14T09:48:57.151Z,20.30
2017-07-14T09:51:24.651Z,20.30
2017-07-14T09:53:52.139Z,20.40
2017-07-14T09:56:20.401Z,20.50
2017-07-14T09:58:48.658Z,20.50
2017-07-14T10:01:16.150Z,20.50
2017-07-14T10:03:44.393Z,20.80
2017-07-14T10:06:11.882Z,20.80
2017-07-14T10:08:41.070Z,20.90
2017-07-14T10:11:09.346Z,21.10
2017-07-14T10:13:37.592Z,21.00
2017-07-14T10:16:05.094Z,21.00
2017-07-14T10:18:33.355Z,21.20
2017-07-14T10:21:01.600Z,21.30
2017-07-14T10:23:29.247Z,21.30
2017-07-14T10:25:56.786Z,21.20
2017-07-14T10:28:24.281Z,21.20
2017-07-14T10:30:51.767Z,21.30
2017-07-14T10:33:20.028Z,21.60
2017-07-14T10:35:47.535Z,21.60
2017-07-14T10:38:15.023Z,21.60
2017-07-14T10:40:42.499Z,21.70
2017-07-14T10:43:12.585Z,21.80
2017-07-14T10:45:41.243Z,22.00
2017-07-14T10:48:08.750Z,22.00
2017-07-14T10:50:36.349Z,22.10
2017-07-14T10:53:04.602Z,22.30
2017-07-14T10:55:32.095Z,22.30
2017-07-14T10:58:05.783Z,22.50
2017-07-14T11:00:34.053Z,22.70
2017-07-14T11:03:02.299Z,22.80
2017-07-14T11:05:29.792Z,22.80
2017-07-14T11:07:58.029Z,22.90
2017-07-14T11:10:25.535Z,22.90
2017-07-14T11:12:53.781Z,23.40
2017-07-14T11:15:21.277Z,23.40
2017-07-14T11:17:48.786Z,23.10
2017-07-14T11:20:16.271Z,23.10
2017-07-14T11:22:44.516Z,23.40
2017-07-14T11:25:12.125Z,23.40
2017-07-14T11:27:39.612Z,23.10
2017-07-14T11:30:07.098Z,23.40
2017-07-14T11:32:34.596Z,23.40
2017-07-14T11:35:02.070Z,23.40
2017-07-14T11:37:29.562Z,23.10
2017-07-14T11:39:57.053Z,23.10
2017-07-14T11:42:24.539Z,23.30
2017-07-14T11:44:52.027Z,23.30
2017-07-14T11:47:19.545Z,23.40
2017-07-14T11:49:47.049Z,23.20
2017-07-14T11:52:14.546Z,23.30
2017-07-14T11:54:42.814Z,23.60
2017-07-14T11:57:10.305Z,23.60
2017-07-14T11:59:37.803Z,23.80
2017-07-14T12:02:05.424Z,24.10
2017-07-14T12:04:32.915Z,24.20
2017-07-14T12:07:00.425Z,23.90
2017-07-14T12:09:28.688Z,23.50
2017-07-14T12:11:56.211Z,23.50
2017-07-14T12:14:23.695Z,23.60
2017-07-14T12:16:51.166Z,23.70
2017-07-14T12:19:19.825Z,23.60
2017-07-14T12:21:47.324Z,23.60
2017-07-14T12:24:14.818Z,23.90
2017-07-14T12:26:42.329Z,24.30
2017-07-14T12:29:10.587Z,24.90
2017-07-14T12:31:38.061Z,24.90
2017-07-14T12:34:06.328Z,25.00
2017-07-14T12:36:34.589Z,25.00
2017-07-14T12:39:02.091Z,24.90
2017-07-14T12:41:29.575Z,24.50
2017-07-14T12:43:57.103Z,24.80
2017-07-14T12:46:25.336Z,24.60
2017-07-14T12:48:52.861Z,24.60
2017-07-14T12:51:20.343Z,24.20
2017-07-14T12:53:47.844Z,24.00
2017-07-14T12:56:16.107Z,23.60
2017-07-14T12:58:44.374Z,23.30
2017-07-14T13:01:11.877Z,23.30
2017-07-14T13:03:39.359Z,23.00
2017-07-14T13:06:06.857Z,22.90
2017-07-14T13:08:34.333Z,22.70
2017-07-14T13:11:01.859Z,22.50
2017-07-14T13:13:29.335Z,22.20
2017-07-14T13:15:57.611Z,22.00
2017-07-14T13:18:25.854Z,21.90
2017-07-14T13:20:53.351Z,21.90
2017-07-14T13:23:21.602Z,21.90
2017-07-14T13:25:49.082Z,21.90
2017-07-14T13:28:17.333Z,22.00
2017-07-14T13:30:44.819Z,21.90
2017-07-14T13:33:13.071Z,22.30
2017-07-14T13:35:40.550Z,22.30
2017-07-14T13:38:08.807Z,22.20
2017-07-14T13:40:36.283Z,22.20
2017-07-14T13:43:04.547Z,22.00
2017-07-14T13:45:32.021Z,22.00
2017-07-14T13:48:00.269Z,21.60
2017-07-14T13:50:27.751Z,21.60
2017-07-14T13:52:56.018Z,21.50
2017-07-14T13:55:24.294Z,21.30
2017-07-14T13:57:51.771Z,21.30
2017-07-14T14:00:20.027Z,20.90
2017-07-14T14:02:47.524Z,20.90
2017-07-14T14:05:15.037Z,20.70
2017-07-14T14:07:42.529Z,20.20
2017-07-14T14:10:10.021Z,20.00
2017-07-14T14:12:37.518Z,19.80
2017-07-14T14:15:05.014Z,20.10
2017-07-14T14:17:32.490Z,20.20
2017-07-14T14:19:59.999Z,20.50
2017-07-14T14:22:28.262Z,21.00
2017-07-14T14:24:55.742Z,21.00
2017-07-14T14:27:24.012Z,21.50
2017-07-14T14:29:52.273Z,21.80
2017-07-14T14:32:19.761Z,21.70
2017-07-14T14:34:47.260Z,21.90
2017-07-14T14:37:14.748Z,21.90
2017-07-14T14:39:43.258Z,21.90
2017-07-14T14:42:10.739Z,22.00
2017-07-14T14:44:38.220Z,22.10
2017-07-14T14:47:05.733Z,22.20
2017-07-14T14:49:33.217Z,22.20
2017-07-14T14:52:00.705Z,22.30
2017-07-14T14:54:28.185Z,22.20
2017-07-14T14:56:55.680Z,22.10
2017-07-14T14:59:23.186Z,22.30
2017-07-14T15:01:50.681Z,22.50
2017-07-14T15:04:18.175Z,22.80
2017-07-14T15:06:45.689Z,22.80
2017-07-14T15:12:05.001Z,22.40
2017-07-14T15:14:32.508Z,22.30
2017-07-14T15:16:59.999Z,22.30
2017-07-14T15:19:27.508Z,22.10
2017-07-14T15:21:55.017Z,22.20
2017-07-14T15:24:22.520Z,22.20
2017-07-14T15:26:50.004Z,22.00
2017-07-14T15:29:17.509Z,22.10
2017-07-14T15:31:45.002Z,21.90
2017-07-14T15:34:12.547Z,22.00
2017-07-14T15:36:40.040Z,22.20
2017-07-14T15:39:07.531Z,22.20
2017-07-14T15:41:35.039Z,22.30
2017-07-14T15:44:02.513Z,22.70
2017-07-14T15:46:30.040Z,23.10
2017-07-14T15:48:57.531Z,23.40
2017-07-14T15:51:25.041Z,23.60
2017-07-14T15:53:52.546Z,23.80
2017-07-14T15:56:20.043Z,24.20
2017-07-14T15:58:47.533Z,24.20
2017-07-14T16:01:15.037Z,24.10
2017-07-14T16:03:43.293Z,24.50
2017-07-14T16:06:10.796Z,24.50
2017-07-14T16:08:38.274Z,24.60
2017-07-14T16:11:05.768Z,24.70
2017-07-14T16:13:33.267Z,24.80
2017-07-14T16:16:01.014Z,24.80
2017-07-14T16:18:29.272Z,23.90
2017-07-14T16:20:56.868Z,23.90
2017-07-14T16:23:24.360Z,24.10
2017-07-14T16:25:51.833Z,23.80
2017-07-14T16:28:19.336Z,24.00
2017-07-14T16:30:46.827Z,23.90
2017-07-14T16:33:14.328Z,24.40
2017-07-14T16:35:42.568Z,25.30
2017-07-14T16:38:10.077Z,25.30
2017-07-14T16:40:38.332Z,26.50
2017-07-14T16:43:06.594Z,26.70
2017-07-14T16:45:34.100Z,26.70
2017-07-14T16:48:01.585Z,27.10
2017-07-14T16:50:29.078Z,26.80
2017-07-14T16:52:56.576Z,26.70
2017-07-14T16:55:24.072Z,27.40
2017-07-14T16:57:51.571Z,27.50
2017-07-14T17:00:19.817Z,28.00
2017-07-14T17:02:47.311Z,27.90
2017-07-14T17:05:14.982Z,28.20
2017-07-14T17:07:42.457Z,28.80
2017-07-14T17:10:09.947Z,29.30
2017-07-14T17:12:37.461Z,29.70
2017-07-14T17:15:04.939Z,29.70
2017-07-14T17:17:32.433Z,29.40
2017-07-14T17:19:59.915Z,28.30
2017-07-14T17:22:28.188Z,28.50
2017-07-14T17:24:56.436Z,28.90
2017-07-14T17:27:23.946Z,28.80
2017-07-14T17:29:51.428Z,28.90
2017-07-14T17:32:18.938Z,28.60
2017-07-14T17:34:53.161Z,28.50
2017-07-14T17:37:22.058Z,29.00
2017-07-14T17:39:49.543Z,28.90
2017-07-14T17:42:17.032Z,29.30
2017-07-14T17:44:44.526Z,28.30
2017-07-14T17:47:12.022Z,28.30
2017-07-14T17:49:39.527Z,27.30
2017-07-14T17:52:07.775Z,24.40
2017-07-14T17:54:35.273Z,24.40
2017-07-14T17:57:02.755Z,23.80
2017-07-14T17:59:30.274Z,23.20
2017-07-14T18:01:57.757Z,22.90
2017-07-14T18:04:25.291Z,22.90
2017-07-14T18:06:52.869Z,22.60
2017-07-14T18:09:20.389Z,22.60
2017-07-14T18:11:47.904Z,22.40
2017-07-14T18:14:15.402Z,22.20
2017-07-14T18:16:42.904Z,22.10
2017-07-14T18:19:10.388Z,21.80
2017-07-14T18:21:37.893Z,21.70
2017-07-14T18:24:05.397Z,21.70
2017-07-14T18:26:33.854Z,21.70
2017-07-14T18:29:01.355Z,21.60
2017-07-14T18:31:28.836Z,21.60
2017-07-14T18:33:56.332Z,21.50
2017-07-14T18:36:23.814Z,21.20
2017-07-14T18:38:51.333Z,21.20
2017-07-14T18:41:19.591Z,21.10
2017-07-14T18:43:47.088Z,21.10
2017-07-14T18:46:20.383Z,21.10
2017-07-14T18:48:47.904Z,20.90
2017-07-14T18:51:15.376Z,20.90
2017-07-14T18:53:44.672Z,20.80
2017-07-14T18:56:12.933Z,20.60
2017-07-14T18:58:40.448Z,20.60
2017-07-14T19:01:07.938Z,20.60
2017-07-14T19:03:35.434Z,20.50
2017-07-14T19:06:03.696Z,20.40
2017-07-14T19:08:31.206Z,20.40
2017-07-14T19:10:58.703Z,20.30
2017-07-14T19:13:26.185Z,20.30
2017-07-14T19:15:54.465Z,20.20
2017-07-14T19:18:22.714Z,20.10
2017-07-14T19:20:50.216Z,20.10
2017-07-14T19:23:37.962Z,20.10
2017-07-14T19:26:05.462Z,20.00
2017-07-14T19:28:32.964Z,20.00
2017-07-14T19:31:00.478Z,19.90
2017-07-14T19:33:27.961Z,20.00
2017-07-14T19:35:56.227Z,19.80
2017-07-14T19:38:24.613Z,19.70
2017-07-14T19:40:52.865Z,19.70
2017-07-14T19:43:20.366Z,19.70
2017-07-14T19:45:47.843Z,19.70
2017-07-14T19:48:15.346Z,19.60
2017-07-14T19:50:42.830Z,19.60
2017-07-14T19:53:10.327Z,19.60
2017-07-14T19:55:37.820Z,19.60
2017-07-14T19:58:05.314Z,19.60
2017-07-14T20:00:32.831Z,19.50
2017-07-14T20:03:00.342Z,19.60
2017-07-14T20:05:27.821Z,19.60
2017-07-14T20:07:55.311Z,19.40
2017-07-14T20:10:22.823Z,19.50
2017-07-14T20:12:50.335Z,19.50
2017-07-14T20:15:17.842Z,19.50
2017-07-14T20:17:45.340Z,19.50
2017-07-14T20:20:12.937Z,19.50
2017-07-14T20:22:40.438Z,19.50
2017-07-14T20:25:07.952Z,19.40
2017-07-14T20:27:35.441Z,19.50
2017-07-14T20:30:02.947Z,19.40
2017-07-14T20:32:31.212Z,19.20
2017-07-14T20:34:58.715Z,19.10
2017-07-14T20:37:26.211Z,19.10
2017-07-14T20:39:53.690Z,19.00
2017-07-14T20:42:21.185Z,19.00
2017-07-14T20:44:48.664Z,19.00
2017-07-14T20:47:16.162Z,19.00
2017-07-14T20:49:43.648Z,19.10
2017-07-14T20:52:11.915Z,19.00
2017-07-14T20:54:40.168Z,19.00
2017-07-14T20:57:07.662Z,19.00
2017-07-14T20:59:35.141Z,19.10
2017-07-14T21:02:02.675Z,19.10
2017-07-14T21:04:30.170Z,19.10
2017-07-14T21:06:57.672Z,19.20
2017-07-14T21:09:25.163Z,19.20
2017-07-14T21:11:52.648Z,19.10
2017-07-14T21:14:20.135Z,19.20
2017-07-14T21:16:47.962Z,19.20
2017-07-14T21:19:15.479Z,19.20
2017-07-14T21:21:43.720Z,19.20
2017-07-14T21:24:11.212Z,19.30
2017-07-14T21:26:39.481Z,19.10
2017-07-14T21:29:07.765Z,19.00
2017-07-14T21:31:36.023Z,18.90
2017-07-14T21:34:03.518Z,18.90
2017-07-14T21:36:31.002Z,18.90
2017-07-14T21:38:58.575Z,18.70
2017-07-14T21:41:26.071Z,18.50
2017-07-14T21:43:54.337Z,18.30
2017-07-14T21:46:21.837Z,18.20
2017-07-14T21:48:49.325Z,18.20
2017-07-14T21:51:16.843Z,18.20
2017-07-14T21:53:44.343Z,18.30
2017-07-14T21:56:11.844Z,18.30
2017-07-14T21:58:40.097Z,18.30
2017-07-14T22:01:07.628Z,18.20
2017-07-14T22:03:35.115Z,17.80
2017-07-14T22:06:03.465Z,17.60
2017-07-14T22:08:30.963Z,17.60
2017-07-14T22:10:59.233Z,17.70
2017-07-14T22:13:26.728Z,17.70
2017-07-14T22:15:54.234Z,17.50
2017-07-14T22:18:21.745Z,17.50
2017-07-14T22:20:49.223Z,17.20
2017-07-14T22:23:16.720Z,16.90
2017-07-14T22:25:44.214Z,16.80
2017-07-14T22:28:11.724Z,17.00
2017-07-14T22:30:39.210Z,17.10
2017-07-14T22:33:07.469Z,16.90
2017-07-14T22:35:35.228Z,17.00
2017-07-14T22:38:08.359Z,17.00
2017-07-14T22:40:35.871Z,16.90
2017-07-14T22:43:03.347Z,16.90
2017-07-14T22:45:30.849Z,17.00
2017-07-14T22:47:58.329Z,16.60
2017-07-14T22:50:25.852Z,16.80
2017-07-14T22:52:53.362Z,16.90
2017-07-14T22:55:20.877Z,16.50
2017-07-14T22:57:48.370Z,16.50
2017-07-14T23:00:15.887Z,16.90
2017-07-14T23:02:43.364Z,17.00
2017-07-14T23:05:11.840Z,16.60
2017-07-14T23:07:39.364Z,16.80
2017-07-14T23:10:07.631Z,17.20
2017-07-14T23:12:35.896Z,17.10
2017-07-14T23:15:03.375Z,17.00
2017-07-14T23:17:31.635Z,16.70
2017-07-14T23:19:59.132Z,16.70
2017-07-14T23:22:26.640Z,16.70
2017-07-14T23:24:54.130Z,16.80
2017-07-14T23:27:22.427Z,16.50
2017-07-14T23:29:49.911Z,16.50
2017-07-14T23:32:17.410Z,16.70
2017-07-14T23:34:45.708Z,16.70
2017-07-14T23:37:13.213Z,16.70
2017-07-14T23:39:40.719Z,16.80
2017-07-14T23:42:08.213Z,16.80
2017-07-14T23:44:35.727Z,16.60
2017-07-14T23:47:03.987Z,16.80
2017-07-14T23:49:31.511Z,16.80
2017-07-14T23:51:59.058Z,16.80
2017-07-14T23:54:26.555Z,16.90
2017-07-14T23:56:54.056Z,17.10
2017-07-14T23:59:21.558Z,17.00
